sensor_id;sensor_type;location;lat;lon;timestamp;pressure;altitude;pressure_sealevel;temperature;humidity
72024;BME280;59889;50.700;5.440;2023-04-07T00:00:35;99926.36;;;20.78;33.94
72024;BME280;59889;50.700;5.440;2023-04-07T00:03:01;99926.66;;;20.61;33.85
72024;BME280;59889;50.700;5.440;2023-04-07T00:05:26;99927.48;;;20.62;33.85
72024;BME280;59889;50.700;5.440;2023-04-07T00:07:52;99927.29;;;20.69;33.76
72024;BME280;59889;50.700;5.440;2023-04-07T00:10:17;99928.73;;;20.64;33.83
72024;BME280;59889;50.700;5.440;2023-04-07T00:12:43;99930.38;;;20.57;33.91
72024;BME280;59889;50.700;5.440;2023-04-07T00:15:09;99928.55;;;20.63;33.82
72024;BME280;59889;50.700;5.440;2023-04-07T00:17:34;99928.88;;;20.80;33.62
72024;BME280;59889;50.700;5.440;2023-04-07T00:19:59;99924.56;;;20.98;33.71
72024;BME280;59889;50.700;5.440;2023-04-07T00:22:24;99922.86;;;20.78;33.65
72024;BME280;59889;50.700;5.440;2023-04-07T00:24:50;99918.90;;;21.03;33.93
72024;BME280;59889;50.700;5.440;2023-04-07T00:27:15;99920.11;;;20.49;33.74
72024;BME280;59889;50.700;5.440;2023-04-07T00:29:41;99918.54;;;20.62;33.85
72024;BME280;59889;50.700;5.440;2023-04-07T00:32:07;99917.57;;;20.72;33.75
72024;BME280;59889;50.700;5.440;2023-04-07T00:34:32;99921.10;;;20.74;33.72
72024;BME280;59889;50.700;5.440;2023-04-07T00:36:57;99923.04;;;20.96;33.76
72024;BME280;59889;50.700;5.440;2023-04-07T00:39:23;99921.26;;;20.63;33.83
72024;BME280;59889;50.700;5.440;2023-04-07T00:41:48;99921.34;;;20.59;33.92
72024;BME280;59889;50.700;5.440;2023-04-07T00:44:14;99918.90;;;20.76;33.74
72024;BME280;59889;50.700;5.440;2023-04-07T00:46:40;99916.52;;;20.54;33.99
72024;BME280;59889;50.700;5.440;2023-04-07T00:49:04;99913.51;;;20.91;33.86
72024;BME280;59889;50.700;5.440;2023-04-07T00:51:30;99913.99;;;20.63;33.88
72024;BME280;59889;50.700;5.440;2023-04-07T00:53:56;99913.38;;;20.73;33.76
72024;BME280;59889;50.700;5.440;2023-04-07T00:56:21;99912.23;;;20.78;33.70
72024;BME280;59889;50.700;5.440;2023-04-07T00:58:46;99911.32;;;20.91;33.85
72024;BME280;59889;50.700;5.440;2023-04-07T01:01:21;99914.35;;;20.58;33.96
72024;BME280;59889;50.700;5.440;2023-04-07T01:03:44;99915.09;;;20.69;33.85
72024;BME280;59889;50.700;5.440;2023-04-07T01:06:05;99913.90;;;20.63;33.88
72024;BME280;59889;50.700;5.440;2023-04-07T01:08:32;99916.51;;;20.70;33.83
72024;BME280;59889;50.700;5.440;2023-04-07T01:10:57;99916.33;;;20.39;33.89
72024;BME280;59889;50.700;5.440;2023-04-07T01:13:23;99917.48;;;20.64;33.90
72024;BME280;59889;50.700;5.440;2023-04-07T01:15:47;99920.16;;;20.85;33.64
72024;BME280;59889;50.700;5.440;2023-04-07T01:18:12;99920.95;;;20.60;33.97
72024;BME280;59889;50.700;5.440;2023-04-07T01:20:35;99919.70;;;20.61;33.92
72024;BME280;59889;50.700;5.440;2023-04-07T01:23:03;99923.37;;;20.70;33.83
72024;BME280;59889;50.700;5.440;2023-04-07T01:25:37;99923.15;;;20.62;33.92
72024;BME280;59889;50.700;5.440;2023-04-07T01:27:59;99922.97;;;20.74;33.80
72024;BME280;59889;50.700;5.440;2023-04-07T01:30:16;99922.48;;;20.65;33.91
72024;BME280;59889;50.700;5.440;2023-04-07T01:32:46;99922.19;;;20.88;33.89
72024;BME280;59889;50.700;5.440;2023-04-07T01:35:10;99922.38;;;20.85;33.96
72024;BME280;59889;50.700;5.440;2023-04-07T01:37:33;99924.18;;;20.74;33.80
72024;BME280;59889;50.700;5.440;2023-04-07T01:39:58;99923.42;;;20.72;33.82
72024;BME280;59889;50.700;5.440;2023-04-07T01:42:25;99924.37;;;20.72;33.83
72024;BME280;59889;50.700;5.440;2023-04-07T01:44:50;99926.60;;;20.71;33.82
72024;BME280;59889;50.700;5.440;2023-04-07T01:47:15;99925.17;;;20.57;34.01
72024;BME280;59889;50.700;5.440;2023-04-07T01:49:41;99924.91;;;20.77;33.79
72024;BME280;59889;50.700;5.440;2023-04-07T01:52:06;99927.17;;;20.36;33.97
72024;BME280;59889;50.700;5.440;2023-04-07T01:54:31;99929.58;;;20.69;33.90
72024;BME280;59889;50.700;5.440;2023-04-07T01:56:57;99928.24;;;20.63;33.96
72024;BME280;59889;50.700;5.440;2023-04-07T01:59:23;99929.55;;;20.56;34.03
72024;BME280;59889;50.700;5.440;2023-04-07T02:01:48;99929.16;;;20.72;33.86
72024;BME280;59889;50.700;5.440;2023-04-07T02:04:20;99927.33;;;20.67;33.90
72024;BME280;59889;50.700;5.440;2023-04-07T02:06:42;99929.49;;;20.83;34.02
72024;BME280;59889;50.700;5.440;2023-04-07T02:09:07;99928.20;;;20.63;33.98
72024;BME280;59889;50.700;5.440;2023-04-07T02:11:31;99923.52;;;20.55;34.08
72024;BME280;59889;50.700;5.440;2023-04-07T02:13:56;99924.37;;;20.64;33.97
72024;BME280;59889;50.700;5.440;2023-04-07T02:16:21;99926.85;;;20.97;33.85
72024;BME280;59889;50.700;5.440;2023-04-07T02:18:46;99926.44;;;20.70;33.91
72024;BME280;59889;50.700;5.440;2023-04-07T02:21:14;99924.69;;;20.82;33.72
72024;BME280;59889;50.700;5.440;2023-04-07T02:23:37;99927.33;;;20.76;33.86
72024;BME280;59889;50.700;5.440;2023-04-07T02:26:03;99928.50;;;21.03;33.82
72024;BME280;59889;50.700;5.440;2023-04-07T02:28:29;99929.93;;;20.73;33.86
72024;BME280;59889;50.700;5.440;2023-04-07T02:30:54;99931.37;;;20.79;33.78
72024;BME280;59889;50.700;5.440;2023-04-07T02:33:19;99934.31;;;20.77;33.82
72024;BME280;59889;50.700;5.440;2023-04-07T02:35:45;99935.42;;;20.64;33.97
72024;BME280;59889;50.700;5.440;2023-04-07T02:38:10;99934.10;;;20.67;33.94
72024;BME280;59889;50.700;5.440;2023-04-07T02:40:36;99934.13;;;20.66;33.96
72024;BME280;59889;50.700;5.440;2023-04-07T02:43:01;99935.41;;;20.98;33.61
72024;BME280;59889;50.700;5.440;2023-04-07T02:45:26;99934.70;;;20.71;33.91
72024;BME280;59889;50.700;5.440;2023-04-07T02:47:52;99932.72;;;20.66;33.96
72024;BME280;59889;50.700;5.440;2023-04-07T02:50:17;99930.58;;;20.76;33.86
72024;BME280;59889;50.700;5.440;2023-04-07T02:52:42;99930.56;;;20.56;34.09
72024;BME280;59889;50.700;5.440;2023-04-07T02:55:09;99933.62;;;20.62;34.03
72024;BME280;59889;50.700;5.440;2023-04-07T02:57:34;99936.06;;;20.70;33.95
72024;BME280;59889;50.700;5.440;2023-04-07T02:59:59;99938.09;;;20.82;33.80
72024;BME280;59889;50.700;5.440;2023-04-07T03:02:25;99940.30;;;20.71;33.91
72024;BME280;59889;50.700;5.440;2023-04-07T03:04:50;99941.43;;;20.66;34.00
72024;BME280;59889;50.700;5.440;2023-04-07T03:07:15;99940.74;;;20.64;34.02
72024;BME280;59889;50.700;5.440;2023-04-07T03:09:41;99940.28;;;20.67;33.97
72024;BME280;59889;50.700;5.440;2023-04-07T03:12:06;99940.59;;;20.68;34.00
72024;BME280;59889;50.700;5.440;2023-04-07T03:14:31;99939.28;;;20.67;33.98
72024;BME280;59889;50.700;5.440;2023-04-07T03:16:57;99939.56;;;20.98;33.87
72024;BME280;59889;50.700;5.440;2023-04-07T03:19:22;99936.51;;;20.66;34.00
72024;BME280;59889;50.700;5.440;2023-04-07T03:21:48;99938.12;;;20.66;33.98
72024;BME280;59889;50.700;5.440;2023-04-07T03:24:13;99939.23;;;20.53;34.14
72024;BME280;59889;50.700;5.440;2023-04-07T03:26:39;99940.61;;;20.62;34.04
72024;BME280;59889;50.700;5.440;2023-04-07T03:29:05;99938.59;;;20.54;34.13
72024;BME280;59889;50.700;5.440;2023-04-07T03:31:30;99939.99;;;20.71;33.94
72024;BME280;59889;50.700;5.440;2023-04-07T03:33:56;99940.08;;;20.54;34.15
72024;BME280;59889;50.700;5.440;2023-04-07T03:36:21;99942.05;;;21.00;33.88
72024;BME280;59889;50.700;5.440;2023-04-07T03:38:46;99944.70;;;20.70;33.95
72024;BME280;59889;50.700;5.440;2023-04-07T03:41:12;99944.94;;;20.60;34.06
72024;BME280;59889;50.700;5.440;2023-04-07T03:43:37;99947.21;;;20.50;34.16
72024;BME280;59889;50.700;5.440;2023-04-07T03:46:03;99943.21;;;20.76;33.87
72024;BME280;59889;50.700;5.440;2023-04-07T03:48:28;99945.40;;;20.66;33.98
72024;BME280;59889;50.700;5.440;2023-04-07T03:50:54;99945.36;;;20.68;33.97
72024;BME280;59889;50.700;5.440;2023-04-07T03:53:19;99946.02;;;20.60;34.04
72024;BME280;59889;50.700;5.440;2023-04-07T03:55:45;99944.84;;;20.56;34.08
72024;BME280;59889;50.700;5.440;2023-04-07T03:58:10;99944.49;;;20.54;34.13
72024;BME280;59889;50.700;5.440;2023-04-07T04:00:35;99943.48;;;20.62;34.02
72024;BME280;59889;50.700;5.440;2023-04-07T04:03:01;99942.34;;;20.56;34.09
72024;BME280;59889;50.700;5.440;2023-04-07T04:05:26;99943.04;;;20.66;33.96
72024;BME280;59889;50.700;5.440;2023-04-07T04:07:52;99944.93;;;20.64;33.97
72024;BME280;59889;50.700;5.440;2023-04-07T04:10:17;99945.08;;;20.74;33.86
72024;BME280;59889;50.700;5.440;2023-04-07T04:12:42;99945.68;;;20.61;34.01
72024;BME280;59889;50.700;5.440;2023-04-07T04:15:09;99946.62;;;20.80;34.07
72024;BME280;59889;50.700;5.440;2023-04-07T04:17:33;99945.93;;;20.87;34.00
72024;BME280;59889;50.700;5.440;2023-04-07T04:19:58;99948.13;;;20.56;34.09
72024;BME280;59889;50.700;5.440;2023-04-07T04:22:24;99950.85;;;20.51;34.14
72024;BME280;59889;50.700;5.440;2023-04-07T04:24:50;99953.92;;;20.56;34.07
72024;BME280;59889;50.700;5.440;2023-04-07T04:27:15;99954.23;;;20.80;33.80
72024;BME280;59889;50.700;5.440;2023-04-07T04:29:40;99957.21;;;20.68;33.91
72024;BME280;59889;50.700;5.440;2023-04-07T04:32:06;99958.21;;;20.71;33.89
72024;BME280;59889;50.700;5.440;2023-04-07T04:34:31;99958.83;;;20.65;33.95
72024;BME280;59889;50.700;5.440;2023-04-07T04:36:57;99959.10;;;20.69;33.89
72024;BME280;59889;50.700;5.440;2023-04-07T04:39:22;99960.70;;;20.26;34.13
72024;BME280;59889;50.700;5.440;2023-04-07T04:41:47;99965.44;;;20.64;33.94
72024;BME280;59889;50.700;5.440;2023-04-07T04:44:12;99967.52;;;20.61;34.51
72024;BME280;59889;50.700;5.440;2023-04-07T04:46:38;99970.18;;;21.07;34.25
72024;BME280;59889;50.700;5.440;2023-04-07T04:49:04;99973.41;;;20.61;34.36
72024;BME280;59889;50.700;5.440;2023-04-07T04:51:29;99974.92;;;20.56;34.26
72024;BME280;59889;50.700;5.440;2023-04-07T04:53:54;99974.42;;;20.58;34.06
72024;BME280;59889;50.700;5.440;2023-04-07T04:56:20;99977.43;;;20.96;34.04
72024;BME280;59889;50.700;5.440;2023-04-07T04:58:46;99980.97;;;20.62;33.93
72024;BME280;59889;50.700;5.440;2023-04-07T05:01:12;99983.34;;;20.58;33.89
72024;BME280;59889;50.700;5.440;2023-04-07T05:03:37;99986.66;;;20.94;33.61
72024;BME280;59889;50.700;5.440;2023-04-07T05:06:03;99991.06;;;20.38;33.68
72024;BME280;59889;50.700;5.440;2023-04-07T05:08:28;99990.03;;;20.53;33.81
72024;BME280;59889;50.700;5.440;2023-04-07T05:10:53;99994.69;;;20.44;33.91
72024;BME280;59889;50.700;5.440;2023-04-07T05:13:19;99997.90;;;20.63;34.02
72024;BME280;59889;50.700;5.440;2023-04-07T05:15:44;99996.29;;;20.58;33.73
72024;BME280;59889;50.700;5.440;2023-04-07T05:18:10;99995.20;;;20.44;33.88
72024;BME280;59889;50.700;5.440;2023-04-07T05:20:34;99994.14;;;20.62;34.01
72024;BME280;59889;50.700;5.440;2023-04-07T05:23:00;99996.21;;;20.85;33.79
72024;BME280;59889;50.700;5.440;2023-04-07T05:25:25;99999.91;;;20.84;33.69
72024;BME280;59889;50.700;5.440;2023-04-07T05:27:51;100002.71;;;20.27;34.02
72024;BME280;59889;50.700;5.440;2023-04-07T05:30:17;100004.99;;;20.29;33.65
72024;BME280;59889;50.700;5.440;2023-04-07T05:32:42;100005.57;;;20.56;33.81
72024;BME280;59889;50.700;5.440;2023-04-07T05:35:08;100006.43;;;20.51;33.92
72024;BME280;59889;50.700;5.440;2023-04-07T05:37:33;100005.85;;;20.62;33.83
72024;BME280;59889;50.700;5.440;2023-04-07T05:39:59;100010.64;;;20.59;34.05
72024;BME280;59889;50.700;5.440;2023-04-07T05:42:24;100010.05;;;20.61;34.14
72024;BME280;59889;50.700;5.440;2023-04-07T05:44:49;100012.72;;;20.41;34.25
72024;BME280;59889;50.700;5.440;2023-04-07T05:47:15;100016.01;;;20.74;34.19
72024;BME280;59889;50.700;5.440;2023-04-07T05:49:40;100022.13;;;20.55;34.17
72024;BME280;59889;50.700;5.440;2023-04-07T05:52:05;100018.52;;;20.54;34.21
72024;BME280;59889;50.700;5.440;2023-04-07T05:54:30;100024.18;;;20.75;34.30
72024;BME280;59889;50.700;5.440;2023-04-07T05:56:56;100026.13;;;20.24;34.32
72024;BME280;59889;50.700;5.440;2023-04-07T05:59:21;100025.29;;;20.48;34.35
72024;BME280;59889;50.700;5.440;2023-04-07T06:01:47;100023.83;;;20.44;34.39
72024;BME280;59889;50.700;5.440;2023-04-07T06:04:12;100024.94;;;20.39;34.46
72024;BME280;59889;50.700;5.440;2023-04-07T06:06:37;100026.50;;;20.73;34.37
72024;BME280;59889;50.700;5.440;2023-04-07T06:09:03;100027.97;;;20.43;34.47
72024;BME280;59889;50.700;5.440;2023-04-07T06:11:28;100030.95;;;20.37;34.27
72024;BME280;59889;50.700;5.440;2023-04-07T06:13:53;100032.58;;;20.26;34.40
72024;BME280;59889;50.700;5.440;2023-04-07T06:16:18;100034.84;;;20.38;34.33
72024;BME280;59889;50.700;5.440;2023-04-07T06:18:44;100036.59;;;20.85;34.33
72024;BME280;59889;50.700;5.440;2023-04-07T06:21:09;100038.04;;;20.58;34.35
72024;BME280;59889;50.700;5.440;2023-04-07T06:23:34;100039.11;;;20.30;34.40
72024;BME280;59889;50.700;5.440;2023-04-07T06:26:00;100042.87;;;20.75;34.43
72024;BME280;59889;50.700;5.440;2023-04-07T06:28:26;100047.58;;;20.28;34.43
72024;BME280;59889;50.700;5.440;2023-04-07T06:30:51;100049.47;;;20.44;34.51
72024;BME280;59889;50.700;5.440;2023-04-07T06:33:16;100051.26;;;20.52;34.47
72024;BME280;59889;50.700;5.440;2023-04-07T06:35:42;100050.70;;;20.54;34.83
72024;BME280;59889;50.700;5.440;2023-04-07T06:38:07;100052.64;;;20.50;34.65
72024;BME280;59889;50.700;5.440;2023-04-07T06:40:32;100052.20;;;20.53;34.61
72024;BME280;59889;50.700;5.440;2023-04-07T06:42:57;100054.08;;;20.44;34.70
72024;BME280;59889;50.700;5.440;2023-04-07T06:45:23;100056.19;;;20.47;34.69
72024;BME280;59889;50.700;5.440;2023-04-07T06:47:48;100058.49;;;20.39;34.84
72024;BME280;59889;50.700;5.440;2023-04-07T06:50:13;100064.41;;;20.52;35.01
72024;BME280;59889;50.700;5.440;2023-04-07T06:52:39;100065.14;;;20.33;35.03
72024;BME280;59889;50.700;5.440;2023-04-07T06:55:05;100064.86;;;20.13;34.93
72024;BME280;59889;50.700;5.440;2023-04-07T06:57:29;100065.56;;;20.56;35.04
72024;BME280;59889;50.700;5.440;2023-04-07T06:59:55;100068.87;;;20.37;35.28
72024;BME280;59889;50.700;5.440;2023-04-07T07:02:20;100073.60;;;20.59;35.42
72024;BME280;59889;50.700;5.440;2023-04-07T07:04:46;100078.64;;;20.20;35.35
72024;BME280;59889;50.700;5.440;2023-04-07T07:07:11;100080.13;;;20.61;35.48
72024;BME280;59889;50.700;5.440;2023-04-07T07:09:36;100086.85;;;20.38;35.52
72024;BME280;59889;50.700;5.440;2023-04-07T07:12:02;100093.44;;;20.62;35.49
72024;BME280;59889;50.700;5.440;2023-04-07T07:14:27;100095.03;;;20.66;35.46
72024;BME280;59889;50.700;5.440;2023-04-07T07:16:53;100096.16;;;20.69;35.42
72024;BME280;59889;50.700;5.440;2023-04-07T07:19:18;100102.89;;;20.45;35.60
72024;BME280;59889;50.700;5.440;2023-04-07T07:21:43;100107.14;;;20.51;35.59
72024;BME280;59889;50.700;5.440;2023-04-07T07:24:08;100112.59;;;20.41;35.70
72024;BME280;59889;50.700;5.440;2023-04-07T07:26:34;100117.48;;;20.20;35.73
72024;BME280;59889;50.700;5.440;2023-04-07T07:28:59;100117.19;;;20.40;35.81
72024;BME280;59889;50.700;5.440;2023-04-07T07:31:25;100118.60;;;20.68;35.81
72024;BME280;59889;50.700;5.440;2023-04-07T07:33:50;100121.18;;;20.67;35.83
72024;BME280;59889;50.700;5.440;2023-04-07T07:36:15;100123.41;;;20.15;35.81
72024;BME280;59889;50.700;5.440;2023-04-07T07:38:41;100128.21;;;20.49;36.05
72024;BME280;59889;50.700;5.440;2023-04-07T07:41:06;100131.15;;;20.46;35.76
72024;BME280;59889;50.700;5.440;2023-04-07T07:43:31;100134.16;;;20.37;35.63
72024;BME280;59889;50.700;5.440;2023-04-07T07:45:57;100134.65;;;20.41;35.83
72024;BME280;59889;50.700;5.440;2023-04-07T07:48:23;100135.74;;;20.43;35.86
72024;BME280;59889;50.700;5.440;2023-04-07T07:50:48;100137.31;;;20.70;35.79
72024;BME280;59889;50.700;5.440;2023-04-07T07:53:13;100133.58;;;20.53;35.98
72024;BME280;59889;50.700;5.440;2023-04-07T07:55:40;100135.90;;;20.33;35.98
72024;BME280;59889;50.700;5.440;2023-04-07T07:58:04;100137.39;;;20.19;35.91
72024;BME280;59889;50.700;5.440;2023-04-07T08:00:29;100139.08;;;20.62;35.97
72024;BME280;59889;50.700;5.440;2023-04-07T08:02:54;100143.18;;;20.36;35.99
72024;BME280;59889;50.700;5.440;2023-04-07T08:05:19;100142.59;;;20.41;35.91
72024;BME280;59889;50.700;5.440;2023-04-07T08:07:44;100143.74;;;20.42;35.95
72024;BME280;59889;50.700;5.440;2023-04-07T08:10:10;100143.40;;;20.76;35.85
72024;BME280;59889;50.700;5.440;2023-04-07T08:12:35;100146.33;;;20.22;35.92
72024;BME280;59889;50.700;5.440;2023-04-07T08:15:00;100149.86;;;20.51;35.88
72024;BME280;59889;50.700;5.440;2023-04-07T08:17:26;100154.03;;;20.26;35.86
72024;BME280;59889;50.700;5.440;2023-04-07T08:19:51;100152.25;;;20.55;35.79
72024;BME280;59889;50.700;5.440;2023-04-07T08:22:17;100153.03;;;20.65;35.95
72024;BME280;59889;50.700;5.440;2023-04-07T08:24:42;100155.89;;;20.61;35.73
72024;BME280;59889;50.700;5.440;2023-04-07T08:27:08;100158.38;;;20.62;35.96
72024;BME280;59889;50.700;5.440;2023-04-07T08:29:34;100160.63;;;20.76;35.81
72024;BME280;59889;50.700;5.440;2023-04-07T08:31:58;100162.04;;;20.21;35.86
72024;BME280;59889;50.700;5.440;2023-04-07T08:34:24;100162.73;;;20.45;35.89
72024;BME280;59889;50.700;5.440;2023-04-07T08:36:49;100164.54;;;20.12;36.01
72024;BME280;59889;50.700;5.440;2023-04-07T08:39:14;100162.74;;;20.41;35.98
72024;BME280;59889;50.700;5.440;2023-04-07T08:41:40;100165.36;;;20.48;35.86
72024;BME280;59889;50.700;5.440;2023-04-07T08:44:06;100166.80;;;20.21;35.87
72024;BME280;59889;50.700;5.440;2023-04-07T08:46:32;100168.68;;;20.34;35.78
72024;BME280;59889;50.700;5.440;2023-04-07T08:48:56;100169.01;;;20.39;35.67
72024;BME280;59889;50.700;5.440;2023-04-07T08:51:26;100170.26;;;20.66;35.61
72024;BME280;59889;50.700;5.440;2023-04-07T08:53:48;100170.72;;;20.89;35.61
72024;BME280;59889;50.700;5.440;2023-04-07T08:56:11;100171.56;;;20.39;35.63
72024;BME280;59889;50.700;5.440;2023-04-07T08:58:38;100172.71;;;20.33;35.64
72024;BME280;59889;50.700;5.440;2023-04-07T09:01:04;100170.63;;;20.30;35.70
72024;BME280;59889;50.700;5.440;2023-04-07T09:03:27;100171.25;;;20.51;35.37
72024;BME280;59889;50.700;5.440;2023-04-07T09:05:53;100170.96;;;20.40;35.55
72024;BME280;59889;50.700;5.440;2023-04-07T09:08:17;100171.64;;;20.90;35.48
72024;BME280;59889;50.700;5.440;2023-04-07T09:10:43;100169.18;;;20.45;35.43
72024;BME280;59889;50.700;5.440;2023-04-07T09:13:08;100171.80;;;20.39;35.50
72024;BME280;59889;50.700;5.440;2023-04-07T09:15:33;100171.02;;;20.88;35.50
72024;BME280;59889;50.700;5.440;2023-04-07T09:17:58;100174.17;;;20.46;35.43
72024;BME280;59889;50.700;5.440;2023-04-07T09:20:24;100173.16;;;20.62;35.54
72024;BME280;59889;50.700;5.440;2023-04-07T09:22:49;100173.41;;;20.63;35.57
72024;BME280;59889;50.700;5.440;2023-04-07T09:25:16;100171.90;;;20.88;35.55
72024;BME280;59889;50.700;5.440;2023-04-07T09:27:39;100173.19;;;20.38;35.61
72024;BME280;59889;50.700;5.440;2023-04-07T09:30:10;100175.34;;;20.44;35.57
72024;BME280;59889;50.700;5.440;2023-04-07T09:32:35;100176.01;;;20.77;35.45
72024;BME280;59889;50.700;5.440;2023-04-07T09:34:58;100171.59;;;20.08;35.72
72024;BME280;59889;50.700;5.440;2023-04-07T09:37:21;100171.55;;;20.69;35.48
72024;BME280;59889;50.700;5.440;2023-04-07T09:39:48;100170.07;;;20.77;35.40
72024;BME280;59889;50.700;5.440;2023-04-07T09:42:10;100172.61;;;20.78;35.39
72024;BME280;59889;50.700;5.440;2023-04-07T09:44:38;100172.26;;;20.77;35.40
72024;BME280;59889;50.700;5.440;2023-04-07T09:47:01;100172.66;;;20.44;35.53
72024;BME280;59889;50.700;5.440;2023-04-07T09:49:26;100174.83;;;20.98;35.44
72024;BME280;59889;50.700;5.440;2023-04-07T09:51:53;100176.77;;;20.46;35.52
72024;BME280;59889;50.700;5.440;2023-04-07T09:54:31;100178.45;;;20.94;35.49
72024;BME280;59889;50.700;5.440;2023-04-07T09:56:43;100177.02;;;20.40;35.55
72024;BME280;59889;50.700;5.440;2023-04-07T09:59:07;100175.64;;;20.42;35.52
72024;BME280;59889;50.700;5.440;2023-04-07T10:01:32;100176.13;;;20.87;35.54
72024;BME280;59889;50.700;5.440;2023-04-07T10:03:57;100174.40;;;20.32;35.59
72024;BME280;59889;50.700;5.440;2023-04-07T10:06:22;100176.67;;;20.66;35.47
72024;BME280;59889;50.700;5.440;2023-04-07T10:08:47;100180.40;;;20.67;35.42
72024;BME280;59889;50.700;5.440;2023-04-07T10:11:14;100179.67;;;20.65;35.43
72024;BME280;59889;50.700;5.440;2023-04-07T10:13:39;100182.16;;;20.47;35.33
72024;BME280;59889;50.700;5.440;2023-04-07T10:16:05;100182.60;;;20.50;35.28
72024;BME280;59889;50.700;5.440;2023-04-07T10:18:29;100181.38;;;20.96;35.28
72024;BME280;59889;50.700;5.440;2023-04-07T10:20:55;100183.09;;;20.68;35.28
72024;BME280;59889;50.700;5.440;2023-04-07T10:23:21;100187.69;;;20.65;35.33
72024;BME280;59889;50.700;5.440;2023-04-07T10:25:44;100185.71;;;20.39;35.39
72024;BME280;59889;50.700;5.440;2023-04-07T10:28:09;100185.94;;;20.39;35.65
72024;BME280;59889;50.700;5.440;2023-04-07T10:30:34;100185.36;;;20.73;35.24
72024;BME280;59889;50.700;5.440;2023-04-07T10:32:59;100183.47;;;20.63;35.36
72024;BME280;59889;50.700;5.440;2023-04-07T10:35:24;100182.71;;;20.39;35.38
72024;BME280;59889;50.700;5.440;2023-04-07T10:40:27;100183.63;;;20.37;35.38
72024;BME280;59889;50.700;5.440;2023-04-07T10:42:45;100183.90;;;20.56;35.42
72024;BME280;59889;50.700;5.440;2023-04-07T10:45:06;100184.89;;;20.68;35.25
72024;BME280;59889;50.700;5.440;2023-04-07T10:47:30;100187.95;;;20.71;35.23
72024;BME280;59889;50.700;5.440;2023-04-07T10:52:21;100195.20;;;20.33;35.38
72024;BME280;59889;50.700;5.440;2023-04-07T10:54:45;100196.09;;;20.65;35.27
72024;BME280;59889;50.700;5.440;2023-04-07T10:57:12;100199.61;;;20.36;35.33
72024;BME280;59889;50.700;5.440;2023-04-07T10:59:37;100197.08;;;20.88;35.27
72024;BME280;59889;50.700;5.440;2023-04-07T11:04:35;100203.47;;;20.54;35.36
72024;BME280;59889;50.700;5.440;2023-04-07T11:06:51;100202.22;;;20.47;35.41
72024;BME280;59889;50.700;5.440;2023-04-07T11:09:18;100205.16;;;20.82;35.30
72024;BME280;59889;50.700;5.440;2023-04-07T11:11:41;100206.93;;;20.49;35.38
72024;BME280;59889;50.700;5.440;2023-04-07T11:14:07;100206.20;;;20.62;35.21
72024;BME280;59889;50.700;5.440;2023-04-07T11:16:36;100209.22;;;20.38;35.21
72024;BME280;59889;50.700;5.440;2023-04-07T11:18:57;100209.51;;;20.47;35.36
72024;BME280;59889;50.700;5.440;2023-04-07T11:21:22;100209.49;;;20.54;35.31
72024;BME280;59889;50.700;5.440;2023-04-07T11:23:47;100213.21;;;20.39;35.19
72024;BME280;59889;50.700;5.440;2023-04-07T11:26:14;100211.21;;;20.85;35.24
72024;BME280;59889;50.700;5.440;2023-04-07T11:28:44;100211.30;;;20.63;35.19
72024;BME280;59889;50.700;5.440;2023-04-07T11:31:03;100209.49;;;20.69;35.45
72024;BME280;59889;50.700;5.440;2023-04-07T11:33:29;100213.25;;;20.42;35.18
72024;BME280;59889;50.700;5.440;2023-04-07T11:35:55;100213.56;;;20.73;35.40
72024;BME280;59889;50.700;5.440;2023-04-07T11:38:18;100212.76;;;20.63;35.20
72024;BME280;59889;50.700;5.440;2023-04-07T11:40:43;100211.83;;;20.45;35.14
72024;BME280;59889;50.700;5.440;2023-04-07T11:43:15;100214.22;;;20.58;35.28
72024;BME280;59889;50.700;5.440;2023-04-07T11:45:33;100211.91;;;20.80;35.31
72024;BME280;59889;50.700;5.440;2023-04-07T11:47:58;100211.78;;;20.44;35.16
72024;BME280;59889;50.700;5.440;2023-04-07T11:50:37;100212.98;;;20.48;35.11
72024;BME280;59889;50.700;5.440;2023-04-07T11:52:48;100215.31;;;20.50;35.38
72024;BME280;59889;50.700;5.440;2023-04-07T11:55:17;100217.32;;;20.59;35.20
72024;BME280;59889;50.700;5.440;2023-04-07T11:57:38;100218.60;;;20.41;35.19
72024;BME280;59889;50.700;5.440;2023-04-07T12:00:05;100221.29;;;20.63;35.23
72024;BME280;59889;50.700;5.440;2023-04-07T12:02:30;100224.12;;;20.70;35.14
72024;BME280;59889;50.700;5.440;2023-04-07T12:04:55;100223.81;;;20.45;35.24
72024;BME280;59889;50.700;5.440;2023-04-07T12:07:20;100224.66;;;20.31;35.46
72024;BME280;59889;50.700;5.440;2023-04-07T12:09:45;100228.46;;;20.85;35.36
72024;BME280;59889;50.700;5.440;2023-04-07T12:12:10;100231.40;;;20.45;35.25
72024;BME280;59889;50.700;5.440;2023-04-07T12:14:36;100231.99;;;20.45;35.29
72024;BME280;59889;50.700;5.440;2023-04-07T12:17:00;100232.89;;;20.41;35.30
72024;BME280;59889;50.700;5.440;2023-04-07T12:19:27;100234.60;;;20.44;35.24
72024;BME280;59889;50.700;5.440;2023-04-07T12:21:51;100238.54;;;20.82;35.37
72024;BME280;59889;50.700;5.440;2023-04-07T12:24:16;100239.02;;;20.41;35.28
72024;BME280;59889;50.700;5.440;2023-04-07T12:26:41;100237.14;;;20.61;35.33
72024;BME280;59889;50.700;5.440;2023-04-07T12:29:06;100235.42;;;20.65;35.23
72024;BME280;59889;50.700;5.440;2023-04-07T12:31:31;100233.74;;;20.43;35.19
72024;BME280;59889;50.700;5.440;2023-04-07T12:33:56;100233.98;;;20.61;35.29
72024;BME280;59889;50.700;5.440;2023-04-07T12:36:21;100232.61;;;20.42;35.22
72024;BME280;59889;50.700;5.440;2023-04-07T12:38:46;100232.87;;;20.47;35.12
72024;BME280;59889;50.700;5.440;2023-04-07T12:41:11;100234.53;;;20.38;35.25
72024;BME280;59889;50.700;5.440;2023-04-07T12:43:36;100235.77;;;20.37;35.28
72024;BME280;59889;50.700;5.440;2023-04-07T12:46:01;100233.45;;;20.37;35.25
72024;BME280;59889;50.700;5.440;2023-04-07T12:48:27;100236.10;;;20.56;35.03
72024;BME280;59889;50.700;5.440;2023-04-07T12:50:52;100235.51;;;20.88;35.21